createdAt,value
2018-02-10T00:00:28.037Z,94.57
2018-02-10T00:02:53.940Z,87.97
2018-02-10T00:05:19.869Z,96.73
2018-02-10T00:07:46.679Z,94.43
2018-02-10T00:10:12.628Z,78.62
2018-02-10T00:12:41.813Z,93.83
2018-02-10T00:15:07.730Z,98.60
2018-02-10T00:17:37.390Z,92.90
2018-02-10T00:20:03.294Z,85.97
2018-02-10T00:22:33.377Z,92.90
2018-02-10T00:24:59.320Z,99.47
2018-02-10T00:27:25.576Z,92.13
2018-02-10T00:29:51.494Z,88.43
2018-02-10T00:32:21.161Z,88.57
2018-02-10T00:34:47.129Z,85.85
2018-02-10T00:37:13.042Z,104.00
2018-02-10T00:39:38.954Z,89.90
2018-02-10T00:42:04.892Z,83.73
2018-02-10T00:44:32.447Z,87.23
2018-02-10T00:46:58.371Z,85.57
2018-02-10T00:49:27.667Z,91.37
2018-02-10T00:51:53.591Z,93.15
2018-02-10T00:54:23.060Z,91.33
2018-02-10T00:56:48.960Z,91.63
2018-02-10T00:59:17.962Z,86.83
2018-02-10T01:01:43.916Z,88.07
2018-02-10T01:04:11.077Z,83.53
2018-02-10T01:06:37.037Z,100.40
2018-02-10T01:09:05.564Z,79.03
2018-02-10T01:11:31.488Z,79.30
2018-02-10T01:13:57.395Z,85.17
2018-02-10T01:16:23.373Z,74.50
2018-02-10T01:18:49.318Z,82.78
2018-02-10T01:21:18.482Z,78.13
2018-02-10T01:23:44.430Z,90.28
2018-02-10T01:26:13.571Z,84.28
2018-02-10T01:28:39.485Z,91.50
2018-02-10T01:31:07.345Z,97.70
2018-02-10T01:33:33.257Z,96.90
2018-02-10T01:36:02.215Z,81.30
2018-02-10T01:38:28.167Z,80.70
2018-02-10T01:40:57.121Z,79.93
2018-02-10T01:43:23.087Z,75.00
2018-02-10T01:45:52.221Z,77.67
2018-02-10T01:48:18.160Z,80.40
2018-02-10T01:50:44.066Z,76.40
2018-02-10T01:53:09.972Z,82.57
2018-02-10T01:55:35.892Z,81.77
2018-02-10T01:58:02.893Z,85.07
2018-02-10T02:00:28.822Z,68.80
2018-02-10T02:02:58.320Z,79.43
2018-02-10T02:05:24.214Z,81.07
2018-02-10T02:07:52.175Z,80.40
2018-02-10T02:10:18.098Z,77.20
2018-02-10T02:12:47.572Z,84.13
2018-02-10T02:15:13.534Z,84.45
2018-02-10T02:17:43.324Z,77.50
2018-02-10T02:20:09.264Z,78.72
2018-02-10T02:22:36.391Z,71.00
2018-02-10T02:25:02.339Z,75.70
2018-02-10T02:27:28.289Z,89.80
2018-02-10T02:29:54.199Z,89.63
2018-02-10T02:32:20.090Z,79.43
2018-02-10T02:34:49.763Z,86.40
2018-02-10T02:37:15.700Z,76.43
2018-02-10T02:39:44.845Z,73.37
2018-02-10T02:42:10.786Z,67.57
2018-02-10T02:44:38.121Z,82.33
2018-02-10T02:47:04.039Z,64.32
2018-02-10T02:49:33.267Z,76.53
2018-02-10T02:51:59.219Z,73.95
2018-02-10T02:54:28.399Z,69.70
2018-02-10T02:56:54.324Z,83.22
2018-02-10T02:59:23.371Z,75.47
2018-02-10T03:01:49.296Z,70.10
2018-02-10T03:04:15.203Z,80.20
2018-02-10T03:06:41.139Z,74.83
2018-02-10T03:09:07.071Z,65.10
2018-02-10T03:11:33.226Z,74.68
2018-02-10T03:13:59.216Z,63.05
2018-02-10T03:16:27.917Z,59.08
2018-02-10T03:18:53.835Z,64.22
2018-02-10T03:21:23.530Z,63.90
2018-02-10T03:23:49.463Z,63.00
2018-02-10T03:26:19.243Z,63.77
2018-02-10T03:28:45.159Z,69.45
2018-02-10T03:31:12.271Z,71.07
2018-02-10T03:33:38.220Z,65.65
2018-02-10T03:36:07.231Z,65.90
2018-02-10T03:38:33.180Z,65.95
2018-02-10T03:40:59.115Z,59.83
2018-02-10T03:43:25.063Z,60.77
2018-02-10T03:45:51.017Z,71.30
2018-02-10T03:48:20.496Z,70.30
2018-02-10T03:50:47.274Z,70.60
2018-02-10T03:53:13.259Z,72.00
2018-02-10T03:55:39.231Z,63.87
2018-02-10T03:58:08.099Z,70.20
2018-02-10T04:00:34.004Z,72.05
2018-02-10T04:03:03.384Z,75.93
2018-02-10T04:05:29.325Z,71.15
2018-02-10T04:07:58.802Z,69.10
2018-02-10T04:10:24.716Z,67.95
2018-02-10T04:12:53.846Z,66.37
2018-02-10T04:15:20.312Z,74.60
2018-02-10T04:17:46.231Z,61.58
2018-02-10T04:20:12.145Z,65.73
2018-02-10T04:22:38.052Z,71.73
2018-02-10T04:25:04.028Z,61.03
2018-02-10T04:27:29.926Z,59.17
2018-02-10T04:29:58.714Z,59.13
2018-02-10T04:32:24.662Z,62.33
2018-02-10T04:34:53.416Z,64.27
2018-02-10T04:37:19.364Z,61.25
2018-02-10T04:39:49.137Z,61.43
2018-02-10T04:42:15.873Z,55.10
2018-02-10T04:44:43.334Z,57.55
2018-02-10T04:47:09.260Z,64.00
2018-02-10T04:49:38.258Z,56.33
2018-02-10T04:52:04.197Z,63.70
2018-02-10T04:54:30.111Z,65.13
2018-02-10T04:56:56.047Z,64.20
2018-02-10T04:59:21.966Z,61.57
2018-02-10T05:01:49.831Z,74.00
2018-02-10T05:04:15.738Z,59.22
2018-02-10T05:06:44.701Z,61.50
2018-02-10T05:09:10.653Z,70.60
2018-02-10T05:11:40.464Z,71.20
2018-02-10T05:14:06.385Z,62.03
2018-02-10T05:16:33.545Z,68.63
2018-02-10T05:18:59.468Z,70.25
2018-02-10T05:21:28.232Z,65.37
2018-02-10T05:23:54.160Z,67.80
2018-02-10T05:26:23.724Z,66.23
2018-02-10T05:28:49.666Z,74.87
2018-02-10T05:31:15.590Z,72.93
2018-02-10T05:33:41.515Z,71.77
2018-02-10T05:36:07.431Z,65.60
2018-02-10T05:38:34.615Z,66.87
2018-02-10T05:41:00.550Z,67.22
2018-02-10T05:43:29.359Z,76.17
2018-02-10T05:45:55.302Z,71.07
2018-02-10T05:48:24.380Z,64.10
2018-02-10T05:50:50.295Z,63.00
2018-02-10T05:53:19.439Z,65.90
2018-02-10T05:55:45.380Z,63.70
2018-02-10T05:58:14.688Z,66.93
2018-02-10T06:00:40.629Z,57.65
2018-02-10T06:03:09.682Z,64.27
2018-02-10T06:05:35.598Z,67.57
2018-02-10T06:08:01.520Z,70.30
2018-02-10T06:10:27.446Z,56.37
2018-02-10T06:12:53.355Z,54.03
2018-02-10T06:15:19.917Z,55.93
2018-02-10T06:17:45.851Z,67.50
2018-02-10T06:20:15.285Z,60.30
2018-02-10T06:22:41.213Z,65.45
2018-02-10T06:25:10.259Z,72.67
2018-02-10T06:27:36.209Z,62.03
2018-02-10T06:30:05.283Z,70.70
2018-02-10T06:32:31.252Z,62.42
2018-02-10T06:35:00.328Z,68.23
2018-02-10T06:37:26.256Z,76.55
2018-02-10T06:39:53.565Z,62.37
2018-02-10T06:42:19.474Z,74.43
2018-02-10T06:44:45.384Z,80.67
2018-02-10T06:47:11.317Z,80.80
2018-02-10T06:49:37.221Z,65.43
2018-02-10T06:52:06.748Z,64.87
2018-02-10T06:54:32.672Z,57.70
2018-02-10T06:57:00.311Z,52.23
2018-02-10T06:59:26.256Z,61.72
2018-02-10T07:01:55.382Z,67.20
2018-02-10T07:04:21.302Z,58.90
2018-02-10T07:06:50.586Z,62.20
2018-02-10T07:09:16.525Z,81.85
2018-02-10T07:11:44.156Z,67.40
2018-02-10T07:14:10.087Z,60.22
2018-02-10T07:16:38.989Z,61.83
2018-02-10T07:19:04.919Z,62.65
2018-02-10T07:21:30.860Z,55.77
2018-02-10T07:23:57.325Z,53.70
2018-02-10T07:26:23.275Z,64.32
2018-02-10T07:28:50.534Z,58.20
2018-02-10T07:31:16.452Z,64.53
2018-02-10T07:33:45.641Z,71.07
2018-02-10T07:36:11.549Z,77.18
2018-02-10T07:38:40.765Z,101.20
2018-02-10T07:41:06.721Z,77.03
2018-02-10T07:43:36.045Z,69.50
2018-02-10T07:46:01.998Z,76.45
2018-02-10T07:48:29.235Z,84.37
2018-02-10T07:50:55.163Z,72.62
2018-02-10T07:53:23.984Z,69.97
2018-02-10T07:55:49.937Z,84.45
2018-02-10T07:58:15.889Z,73.93
2018-02-10T08:00:42.105Z,73.57
2018-02-10T08:03:08.055Z,70.70
2018-02-10T08:05:35.688Z,85.23
2018-02-10T08:08:01.604Z,84.85
2018-02-10T08:10:31.448Z,73.23
2018-02-10T08:12:57.372Z,80.40
2018-02-10T08:15:26.583Z,82.73
2018-02-10T08:17:52.497Z,76.57
2018-02-10T08:20:21.606Z,70.87
2018-02-10T08:22:47.563Z,78.90
2018-02-10T08:25:16.782Z,67.00
2018-02-10T08:27:42.716Z,73.45
2018-02-10T08:30:09.827Z,76.03
2018-02-10T08:32:35.784Z,78.40
2018-02-10T08:35:01.687Z,84.40
2018-02-10T08:37:27.613Z,84.20
2018-02-10T08:39:53.508Z,75.87
2018-02-10T08:42:21.195Z,77.87
2018-02-10T08:44:47.153Z,69.18
2018-02-10T08:47:16.157Z,76.20
2018-02-10T08:49:42.092Z,68.78
2018-02-10T08:52:11.284Z,79.53
2018-02-10T08:54:37.225Z,82.85
2018-02-10T08:57:06.843Z,82.70
2018-02-10T08:59:32.765Z,83.00
2018-02-10T09:02:00.113Z,73.37
2018-02-10T09:04:26.080Z,68.22
2018-02-10T09:06:55.370Z,69.00
2018-02-10T09:09:21.286Z,68.87
2018-02-10T09:11:47.259Z,75.20
2018-02-10T09:14:13.189Z,63.10
2018-02-10T09:16:39.167Z,68.87
2018-02-10T09:19:06.569Z,71.05
2018-02-10T09:21:32.540Z,64.25
2018-02-10T09:24:01.661Z,67.72
2018-02-10T09:26:27.590Z,71.15
2018-02-10T09:28:57.469Z,69.20
2018-02-10T09:31:23.422Z,61.53
2018-02-10T09:33:50.536Z,66.63
2018-02-10T09:36:16.470Z,63.45
2018-02-10T09:38:46.197Z,59.90
2018-02-10T09:41:12.108Z,63.65
2018-02-10T09:43:41.654Z,58.30
2018-02-10T09:46:07.567Z,58.58
2018-02-10T09:48:33.488Z,52.40
2018-02-10T09:50:59.414Z,52.23
2018-02-10T09:53:41.307Z,57.53
2018-02-10T09:56:07.245Z,52.95
2018-02-10T09:58:33.176Z,47.43
2018-02-10T10:00:59.095Z,48.70
2018-02-10T10:03:25.081Z,48.80
2018-02-10T10:05:50.991Z,48.20
2018-02-10T10:08:28.312Z,47.70
2018-02-10T10:10:54.248Z,42.20
2018-02-10T10:13:20.158Z,39.63
2018-02-10T10:15:46.099Z,45.67
2018-02-10T10:18:12.054Z,33.47
2018-02-10T10:20:37.990Z,33.27
2018-02-10T10:23:03.934Z,31.57
2018-02-10T10:25:29.858Z,36.77
2018-02-10T10:27:55.792Z,29.43
2018-02-10T10:30:21.708Z,28.83
2018-02-10T10:32:47.624Z,32.80
2018-02-10T10:35:13.547Z,35.53
2018-02-10T10:37:39.471Z,28.03
2018-02-10T10:40:05.400Z,28.87
2018-02-10T10:42:31.338Z,40.67
2018-02-10T10:44:57.233Z,35.00
2018-02-10T10:47:23.131Z,29.17
2018-02-10T10:49:49.060Z,31.17
2018-02-10T10:52:16.721Z,24.93
2018-02-10T10:54:42.669Z,32.78
2018-02-10T10:57:11.724Z,30.93
2018-02-10T10:59:37.643Z,30.88
2018-02-10T11:02:03.590Z,30.93
2018-02-10T11:04:29.502Z,35.53
2018-02-10T11:06:55.439Z,28.00
2018-02-10T11:09:22.332Z,32.70
2018-02-10T11:11:48.290Z,32.30
2018-02-10T11:14:17.640Z,33.37
2018-02-10T11:16:43.555Z,33.05
2018-02-10T11:19:13.517Z,33.17
2018-02-10T11:21:39.435Z,26.42
2018-02-10T11:24:07.240Z,29.80
2018-02-10T11:26:33.155Z,29.60
2018-02-10T11:29:02.337Z,27.73
2018-02-10T11:31:28.265Z,35.80
2018-02-10T11:33:57.554Z,29.37
2018-02-10T11:36:23.470Z,29.67
2018-02-10T11:38:49.420Z,27.00
2018-02-10T11:41:15.371Z,23.43
2018-02-10T11:43:41.284Z,27.20
2018-02-10T11:46:07.650Z,24.60
2018-02-10T11:48:33.556Z,25.23
2018-02-10T11:51:02.409Z,27.20
2018-02-10T11:53:28.348Z,22.73
2018-02-10T11:55:57.149Z,22.83
2018-02-10T11:58:23.092Z,26.83
2018-02-10T12:00:52.074Z,22.07
2018-02-10T12:03:17.996Z,22.60
2018-02-10T12:05:47.328Z,23.47
2018-02-10T12:08:13.262Z,17.42
2018-02-10T12:10:42.680Z,21.13
2018-02-10T12:13:08.570Z,15.15
2018-02-10T12:15:34.488Z,21.93
2018-02-10T12:18:00.426Z,16.93
2018-02-10T12:20:26.377Z,19.40
2018-02-10T12:22:53.634Z,16.77
2018-02-10T12:25:19.577Z,14.38
2018-02-10T12:27:48.772Z,18.10
2018-02-10T12:30:14.721Z,15.55
2018-02-10T12:32:43.770Z,13.97
2018-02-10T12:35:09.715Z,18.00
2018-02-10T12:37:37.168Z,16.97
2018-02-10T12:40:03.133Z,17.35
2018-02-10T12:42:31.901Z,16.40
2018-02-10T12:44:57.808Z,15.25
2018-02-10T12:47:27.285Z,14.73
2018-02-10T12:49:53.229Z,17.70
2018-02-10T12:52:19.152Z,13.40
2018-02-10T12:54:45.068Z,18.87
2018-02-10T12:57:10.996Z,15.60
2018-02-10T12:59:38.264Z,12.23
2018-02-10T13:02:04.208Z,15.20
2018-02-10T13:04:33.128Z,17.17
2018-02-10T13:06:59.073Z,14.87
2018-02-10T13:09:28.205Z,18.12
2018-02-10T13:11:54.112Z,18.60
2018-02-10T13:14:23.383Z,18.40
2018-02-10T13:16:49.300Z,19.90
2018-02-10T13:19:18.474Z,20.60
2018-02-10T13:21:44.397Z,18.75
2018-02-10T13:24:13.586Z,17.33
2018-02-10T13:26:39.532Z,22.67
2018-02-10T13:29:05.485Z,21.37
2018-02-10T13:31:31.435Z,19.80
2018-02-10T13:33:57.383Z,21.90
2018-02-10T13:36:23.509Z,17.10
2018-02-10T13:38:49.435Z,20.80
2018-02-10T13:41:18.387Z,18.60
2018-02-10T13:43:44.292Z,18.87
2018-02-10T13:46:13.068Z,18.97
2018-02-10T13:48:39.021Z,16.40
2018-02-10T13:51:08.287Z,17.20
2018-02-10T13:53:34.211Z,22.42
2018-02-10T13:56:03.309Z,24.03
2018-02-10T13:58:29.222Z,22.92
2018-02-10T14:00:58.705Z,29.53
2018-02-10T14:03:24.660Z,31.37
2018-02-10T14:05:50.566Z,24.80
2018-02-10T14:08:16.504Z,27.03
2018-02-10T14:10:42.432Z,28.30
2018-02-10T14:13:09.701Z,23.60
2018-02-10T14:15:35.627Z,26.08
2018-02-10T14:18:03.510Z,22.90
2018-02-10T14:20:29.422Z,22.23
2018-02-10T14:22:58.331Z,22.53
2018-02-10T14:25:24.267Z,25.08
2018-02-10T14:27:53.524Z,22.43
2018-02-10T14:30:19.486Z,23.75
2018-02-10T14:32:49.012Z,23.73
2018-02-10T14:35:14.938Z,27.87
2018-02-10T14:37:44.017Z,21.60
2018-02-10T14:40:09.937Z,22.13
2018-02-10T14:42:35.869Z,22.77
2018-02-10T14:45:01.781Z,19.80
2018-02-10T14:47:27.705Z,22.47
2018-02-10T14:49:54.135Z,23.73
2018-02-10T14:52:20.068Z,22.80
2018-02-10T14:54:48.931Z,26.77
2018-02-10T14:57:14.864Z,22.95
2018-02-10T14:59:44.337Z,22.90
2018-02-10T15:02:10.296Z,24.37
2018-02-10T15:04:39.545Z,28.03
2018-02-10T15:07:05.480Z,23.85
2018-02-10T15:09:33.034Z,24.37
2018-02-10T15:11:59.024Z,25.75
2018-02-10T15:14:28.441Z,29.37
2018-02-10T15:16:54.422Z,30.10
2018-02-10T15:19:20.377Z,20.50
2018-02-10T15:21:46.293Z,29.50
2018-02-10T15:24:12.255Z,27.37
2018-02-10T15:26:39.331Z,29.53
2018-02-10T15:29:05.262Z,26.23
2018-02-10T15:31:43.652Z,33.00
2018-02-10T15:37:07.615Z,35.53
2018-02-10T15:39:33.523Z,26.95
2018-02-10T15:41:59.465Z,29.60
2018-02-10T15:44:25.403Z,29.87
2018-02-10T15:46:51.300Z,29.00
2018-02-10T15:49:17.232Z,143.93
2018-02-10T15:51:43.156Z,42.27
2018-02-10T15:54:09.077Z,29.77
2018-02-10T15:56:35.000Z,31.87
2018-02-10T15:59:00.939Z,32.40
2018-02-10T16:01:26.892Z,32.03
2018-02-10T16:03:52.826Z,23.30
2018-02-10T16:06:18.742Z,29.17
2018-02-10T16:08:44.675Z,32.43
2018-02-10T16:11:10.613Z,30.20
2018-02-10T16:13:36.546Z,37.30
2018-02-10T16:16:02.458Z,23.90
2018-02-10T16:18:28.386Z,25.97
2018-02-10T16:20:54.348Z,29.20
2018-02-10T16:23:20.276Z,24.67
2018-02-10T16:25:46.188Z,30.90
2018-02-10T16:28:12.096Z,23.40
2018-02-10T16:30:38.048Z,28.50
2018-02-10T16:33:03.959Z,24.27
2018-02-10T16:35:29.893Z,28.27
2018-02-10T16:37:55.823Z,27.77
2018-02-10T16:40:21.723Z,26.50
2018-02-10T16:42:47.656Z,31.47
2018-02-10T16:45:13.568Z,31.50
2018-02-10T16:47:39.502Z,29.93
2018-02-10T16:50:05.411Z,33.07
2018-02-10T16:52:31.341Z,26.40
2018-02-10T16:54:57.265Z,27.60
2018-02-10T16:57:23.193Z,26.83
2018-02-10T16:59:49.193Z,21.93
2018-02-10T17:02:15.128Z,25.40
2018-02-10T17:04:43.957Z,28.20
2018-02-10T17:07:09.912Z,35.78
2018-02-10T17:09:35.806Z,19.63
2018-02-10T17:12:01.733Z,27.90
2018-02-10T17:14:27.681Z,22.73
2018-02-10T17:16:55.225Z,24.40
2018-02-10T17:19:21.152Z,20.40
2018-02-10T17:21:50.214Z,22.20
2018-02-10T17:24:16.153Z,20.73
2018-02-10T17:26:46.058Z,23.27
2018-02-10T17:29:11.964Z,18.20
2018-02-10T17:31:41.364Z,22.17
2018-02-10T17:34:07.266Z,22.60
2018-02-10T17:36:34.606Z,22.33
2018-02-10T17:39:00.581Z,29.15
2018-02-10T17:41:29.841Z,27.27
2018-02-10T17:43:55.779Z,25.67
2018-02-10T17:46:21.712Z,23.87
2018-02-10T17:48:47.651Z,32.00
2018-02-10T17:51:13.558Z,30.90
2018-02-10T17:53:41.420Z,23.67
2018-02-10T17:56:07.331Z,32.63
2018-02-10T17:58:36.784Z,37.60
2018-02-10T18:01:02.727Z,28.52
2018-02-10T18:03:31.853Z,31.60
2018-02-10T18:05:57.762Z,31.65
2018-02-10T18:08:24.815Z,34.87
2018-02-10T18:10:50.739Z,27.23
2018-02-10T18:13:19.699Z,25.23
2018-02-10T18:15:45.643Z,25.77
2018-02-10T18:18:14.493Z,28.30
2018-02-10T18:20:40.433Z,27.23
2018-02-10T18:23:06.356Z,24.73
2018-02-10T18:25:32.289Z,26.10
2018-02-10T18:27:58.231Z,21.03
2018-02-10T18:30:27.791Z,19.70
2018-02-10T18:32:53.755Z,27.90
2018-02-10T18:35:21.067Z,22.50
2018-02-10T18:37:47.005Z,15.63
2018-02-10T18:40:16.806Z,17.03
2018-02-10T18:42:42.744Z,18.60
2018-02-10T18:45:10.281Z,15.80
2018-02-10T18:47:36.203Z,12.88
2018-02-10T18:50:05.137Z,14.50
2018-02-10T18:52:31.109Z,11.25
2018-02-10T18:55:00.977Z,12.83
2018-02-10T18:57:26.907Z,13.45
2018-02-10T18:59:52.821Z,15.00
2018-02-10T19:02:18.764Z,14.90
2018-02-10T19:04:44.693Z,15.93
2018-02-10T19:07:11.832Z,17.57
2018-02-10T19:09:37.789Z,21.98
2018-02-10T19:12:07.393Z,17.17
2018-02-10T19:14:33.324Z,19.92
2018-02-10T19:17:02.480Z,13.90
2018-02-10T19:19:28.553Z,10.88
2018-02-10T19:21:55.597Z,11.82
2018-02-10T19:24:21.541Z,15.57
2018-02-10T19:26:50.531Z,17.47
2018-02-10T19:29:16.473Z,16.52
2018-02-10T19:31:46.398Z,22.37
2018-02-10T19:34:12.346Z,12.57
2018-02-10T19:36:38.293Z,15.77
2018-02-10T19:39:04.231Z,18.20
2018-02-10T19:41:30.156Z,18.30
2018-02-10T19:43:56.853Z,20.70
2018-02-10T19:46:22.782Z,20.37
2018-02-10T19:48:51.514Z,25.57
2018-02-10T19:51:17.459Z,22.75
2018-02-10T19:53:46.884Z,17.47
2018-02-10T19:56:12.820Z,19.15
2018-02-10T19:58:42.686Z,16.10
2018-02-10T20:01:08.621Z,15.00
2018-02-10T20:03:35.954Z,22.00
2018-02-10T20:06:01.905Z,15.43
2018-02-10T20:08:31.346Z,18.73
2018-02-10T20:10:57.343Z,13.65
2018-02-10T20:13:23.285Z,17.30
2018-02-10T20:15:49.221Z,14.53
2018-02-10T20:18:15.153Z,13.70
2018-02-10T20:20:42.400Z,17.80
2018-02-10T20:23:08.361Z,20.62
2018-02-10T20:25:37.592Z,15.47
2018-02-10T20:28:03.518Z,27.80
2018-02-10T20:30:32.901Z,28.03
2018-02-10T20:32:58.842Z,50.00
2018-02-10T20:35:26.413Z,21.10
2018-02-10T20:37:52.326Z,20.98
2018-02-10T20:40:22.088Z,27.17
2018-02-10T20:42:48.026Z,30.55
2018-02-10T20:45:16.960Z,17.40
2018-02-10T20:47:42.892Z,18.98
2018-02-10T20:50:08.837Z,15.10
2018-02-10T20:52:34.987Z,14.40
2018-02-10T20:55:00.927Z,19.37
2018-02-10T20:57:27.268Z,38.27
2018-02-10T20:59:53.209Z,31.75
2018-02-10T21:02:22.026Z,23.63
2018-02-10T21:04:47.975Z,20.23
2018-02-10T21:07:17.101Z,30.87
2018-02-10T21:09:43.057Z,12.00
2018-02-10T21:12:12.419Z,18.33
2018-02-10T21:14:38.350Z,10.88
2018-02-10T21:17:07.818Z,11.90
2018-02-10T21:19:33.763Z,10.93
2018-02-10T21:22:01.492Z,13.30
2018-02-10T21:24:27.660Z,10.63
2018-02-10T21:26:53.579Z,11.50
2018-02-10T21:29:19.545Z,14.57
2018-02-10T21:31:45.479Z,7.18
2018-02-10T21:34:12.604Z,8.80
2018-02-10T21:36:38.533Z,13.93
2018-02-10T21:39:07.408Z,6.83
2018-02-10T21:41:33.321Z,8.48
2018-02-10T21:44:02.180Z,7.43
2018-02-10T21:46:28.122Z,8.52
2018-02-10T21:48:56.961Z,9.33
2018-02-10T21:51:22.904Z,9.80
2018-02-10T21:53:52.138Z,9.67
2018-02-10T21:56:18.060Z,9.88
2018-02-10T21:58:47.577Z,9.03
2018-02-10T22:01:13.512Z,10.45
2018-02-10T22:03:39.468Z,17.60
2018-02-10T22:06:05.457Z,13.67
2018-02-10T22:08:31.378Z,11.12
2018-02-10T22:10:57.879Z,9.87
2018-02-10T22:13:23.774Z,10.35
2018-02-10T22:15:53.232Z,20.27
2018-02-10T22:18:19.181Z,10.77
2018-02-10T22:20:48.840Z,13.50
2018-02-10T22:23:14.739Z,7.97
2018-02-10T22:25:42.708Z,9.20
2018-02-10T22:28:08.650Z,13.57
2018-02-10T22:30:38.188Z,12.77
2018-02-10T22:33:04.115Z,12.10
2018-02-10T22:35:31.431Z,13.47
2018-02-10T22:37:57.381Z,9.32
2018-02-10T22:40:23.324Z,8.70
2018-02-10T22:42:49.260Z,11.53
2018-02-10T22:45:15.201Z,8.30
2018-02-10T22:47:44.541Z,8.87
2018-02-10T22:50:10.489Z,8.48
2018-02-10T22:52:39.815Z,12.83
2018-02-10T22:55:05.772Z,12.00
2018-02-10T22:57:32.905Z,11.77
2018-02-10T22:59:58.820Z,10.43
2018-02-10T23:02:28.354Z,11.47
2018-02-10T23:04:54.259Z,11.35
2018-02-10T23:07:23.609Z,13.20
2018-02-10T23:09:49.544Z,12.63
2018-02-10T23:12:17.368Z,12.97
2018-02-10T23:14:43.313Z,11.85
2018-02-10T23:17:09.236Z,13.13
2018-02-10T23:19:35.169Z,13.03
2018-02-10T23:22:01.102Z,13.90
2018-02-10T23:24:28.645Z,15.57
2018-02-10T23:26:54.572Z,13.00
2018-02-10T23:29:23.721Z,13.80
2018-02-10T23:31:49.657Z,14.05
2018-02-10T23:34:18.840Z,12.30
2018-02-10T23:36:44.775Z,16.52
2018-02-10T23:39:13.968Z,12.93
2018-02-10T23:41:39.893Z,15.07
2018-02-10T23:44:07.418Z,13.10
2018-02-10T23:46:33.366Z,15.82
2018-02-10T23:49:02.092Z,14.33
2018-02-10T23:51:28.057Z,14.15
2018-02-10T23:53:53.984Z,17.55
2018-02-10T23:56:19.923Z,16.57
2018-02-10T23:58:45.860Z,14.97
